METAR Formatted Surface Weather Observation
Issued by NWS

Home | Current Version | Previous Version | Text Only | Print | Product List | Glossary On
Versions: 1 2 3 4 5 6 7 8 9 10 11 12 13 14 15 16 17 18 19
000
SAUS43 KUNR 280657
MTRD07
METAR KD07 280656Z AUTO 21006KT 17/16 A2996 RMK AO1 SLP134 T01720156
402720161



USA.gov is the U.S. government's official web portal to all federal, state and local government web resources and services.